sensor_id;sensor_type;location;lat;lon;timestamp;temperature;humidity
6958;DHT22;50346;51.268;15.942;2022-07-21T00:02:44;21.70;99.90
6958;DHT22;50346;51.268;15.942;2022-07-21T00:10:02;21.40;99.90
6958;DHT22;50346;51.268;15.942;2022-07-21T00:31:56;21.30;1.00
6958;DHT22;50346;51.268;15.942;2022-07-21T00:34:21;21.20;99.90
6958;DHT22;50346;51.268;15.942;2022-07-21T00:39:13;21.10;1.00
6958;DHT22;50346;51.268;15.942;2022-07-21T00:41:39;21.10;1.00
6958;DHT22;50346;51.268;15.942;2022-07-21T00:44:04;21.10;1.00
6958;DHT22;50346;51.268;15.942;2022-07-21T00:46:30;21.10;99.90
6958;DHT22;50346;51.268;15.942;2022-07-21T00:48:56;21.00;99.90
6958;DHT22;50346;51.268;15.942;2022-07-21T01:01:06;20.80;1.00
6958;DHT22;50346;51.268;15.942;2022-07-21T01:03:32;20.70;1.00
6958;DHT22;50346;51.268;15.942;2022-07-21T01:05:58;20.60;1.00
6958;DHT22;50346;51.268;15.942;2022-07-21T01:08:24;20.50;1.00
6958;DHT22;50346;51.268;15.942;2022-07-21T01:10:53;20.40;1.00
6958;DHT22;50346;51.268;15.942;2022-07-21T01:13:18;20.20;1.00
6958;DHT22;50346;51.268;15.942;2022-07-21T01:18:10;20.10;1.00
6958;DHT22;50346;51.268;15.942;2022-07-21T01:20:37;20.00;1.00
6958;DHT22;50346;51.268;15.942;2022-07-21T01:23:04;20.00;99.90
6958;DHT22;50346;51.268;15.942;2022-07-21T02:07:16;19.90;1.00
6958;DHT22;50346;51.268;15.942;2022-07-21T02:09:42;19.80;1.00
6958;DHT22;50346;51.268;15.942;2022-07-21T02:14:34;19.70;1.00
6958;DHT22;50346;51.268;15.942;2022-07-21T02:16:59;19.70;1.00
6958;DHT22;50346;51.268;15.942;2022-07-21T02:19:25;19.70;1.00
6958;DHT22;50346;51.268;15.942;2022-07-21T02:21:51;19.70;1.00
6958;DHT22;50346;51.268;15.942;2022-07-21T02:24:16;19.70;1.00
6958;DHT22;50346;51.268;15.942;2022-07-21T02:26:42;19.70;1.00
6958;DHT22;50346;51.268;15.942;2022-07-21T02:29:07;19.70;1.00
6958;DHT22;50346;51.268;15.942;2022-07-21T02:31:33;19.70;1.00
6958;DHT22;50346;51.268;15.942;2022-07-21T02:33:59;19.70;1.00
6958;DHT22;50346;51.268;15.942;2022-07-21T02:36:24;19.70;1.00
6958;DHT22;50346;51.268;15.942;2022-07-21T02:38:50;19.70;1.00
6958;DHT22;50346;51.268;15.942;2022-07-21T02:41:16;19.60;1.00
6958;DHT22;50346;51.268;15.942;2022-07-21T02:43:42;19.60;1.00
6958;DHT22;50346;51.268;15.942;2022-07-21T02:46:07;19.60;1.00
6958;DHT22;50346;51.268;15.942;2022-07-21T02:48:33;19.60;1.00
6958;DHT22;50346;51.268;15.942;2022-07-21T02:50:59;19.60;1.00
6958;DHT22;50346;51.268;15.942;2022-07-21T02:53:24;19.60;1.00
6958;DHT22;50346;51.268;15.942;2022-07-21T02:58:22;19.50;1.00
6958;DHT22;50346;51.268;15.942;2022-07-21T03:00:56;19.50;1.00
6958;DHT22;50346;51.268;15.942;2022-07-21T03:03:24;19.50;6.80
6958;DHT22;50346;51.268;15.942;2022-07-21T03:05:50;19.40;16.90
6958;DHT22;50346;51.268;15.942;2022-07-21T03:08:17;19.40;50.80
6958;DHT22;50346;51.268;15.942;2022-07-21T03:10:43;19.30;99.90
6958;DHT22;50346;51.268;15.942;2022-07-21T03:13:09;19.50;99.90
6958;DHT22;50346;51.268;15.942;2022-07-21T03:15:35;19.40;99.90
6958;DHT22;50346;51.268;15.942;2022-07-21T03:18:01;19.40;99.90
6958;DHT22;50346;51.268;15.942;2022-07-21T03:20:29;19.40;99.90
6958;DHT22;50346;51.268;15.942;2022-07-21T03:22:55;19.40;99.90
6958;DHT22;50346;51.268;15.942;2022-07-21T03:25:21;19.40;99.90
6958;DHT22;50346;51.268;15.942;2022-07-21T03:27:48;19.50;99.90
6958;DHT22;50346;51.268;15.942;2022-07-21T03:30:14;19.50;99.90
6958;DHT22;50346;51.268;15.942;2022-07-21T03:32:41;19.50;99.90
6958;DHT22;50346;51.268;15.942;2022-07-21T03:35:08;19.50;99.90
6958;DHT22;50346;51.268;15.942;2022-07-21T03:37:41;19.60;99.90
6958;DHT22;50346;51.268;15.942;2022-07-21T03:40:07;19.60;99.90
6958;DHT22;50346;51.268;15.942;2022-07-21T03:42:33;19.60;99.90
6958;DHT22;50346;51.268;15.942;2022-07-21T03:44:59;19.70;99.90
6958;DHT22;50346;51.268;15.942;2022-07-21T03:47:24;19.50;99.90
6958;DHT22;50346;51.268;15.942;2022-07-21T03:49:50;19.40;99.90
6958;DHT22;50346;51.268;15.942;2022-07-21T03:52:16;19.40;99.90
6958;DHT22;50346;51.268;15.942;2022-07-21T03:54:41;19.30;99.90
6958;DHT22;50346;51.268;15.942;2022-07-21T03:57:07;19.30;99.90
6958;DHT22;50346;51.268;15.942;2022-07-21T03:59:32;19.50;99.90
6958;DHT22;50346;51.268;15.942;2022-07-21T04:01:58;19.30;99.90
6958;DHT22;50346;51.268;15.942;2022-07-21T04:04:23;19.20;99.90
6958;DHT22;50346;51.268;15.942;2022-07-21T04:06:49;19.30;99.90
6958;DHT22;50346;51.268;15.942;2022-07-21T04:09:15;19.30;99.90
6958;DHT22;50346;51.268;15.942;2022-07-21T04:11:42;19.30;99.90
6958;DHT22;50346;51.268;15.942;2022-07-21T04:14:08;19.60;99.90
6958;DHT22;50346;51.268;15.942;2022-07-21T04:16:34;19.60;99.90
6958;DHT22;50346;51.268;15.942;2022-07-21T04:18:59;19.40;99.90
6958;DHT22;50346;51.268;15.942;2022-07-21T04:21:25;19.60;99.90
6958;DHT22;50346;51.268;15.942;2022-07-21T04:23:50;19.50;99.90
6958;DHT22;50346;51.268;15.942;2022-07-21T04:26:16;19.60;99.90
6958;DHT22;50346;51.268;15.942;2022-07-21T04:28:42;19.70;99.90
6958;DHT22;50346;51.268;15.942;2022-07-21T04:31:07;19.80;99.90
6958;DHT22;50346;51.268;15.942;2022-07-21T04:33:33;19.80;99.90
6958;DHT22;50346;51.268;15.942;2022-07-21T04:35:59;19.90;99.90
6958;DHT22;50346;51.268;15.942;2022-07-21T04:38:24;18.80;1.00
6958;DHT22;50346;51.268;15.942;2022-07-21T04:40:50;20.00;56.60
6958;DHT22;50346;51.268;15.942;2022-07-21T04:43:15;20.10;47.40
6958;DHT22;50346;51.268;15.942;2022-07-21T04:45:41;20.10;44.70
6958;DHT22;50346;51.268;15.942;2022-07-21T04:48:07;20.20;37.00
6958;DHT22;50346;51.268;15.942;2022-07-21T04:50:32;20.50;37.80
6958;DHT22;50346;51.268;15.942;2022-07-21T04:52:58;20.40;33.90
6958;DHT22;50346;51.268;15.942;2022-07-21T04:55:24;20.50;29.50
6958;DHT22;50346;51.268;15.942;2022-07-21T04:57:52;20.60;25.40
6958;DHT22;50346;51.268;15.942;2022-07-21T05:00:22;20.60;24.70
6958;DHT22;50346;51.268;15.942;2022-07-21T05:02:49;20.70;21.70
6958;DHT22;50346;51.268;15.942;2022-07-21T05:05:15;20.80;19.80
6958;DHT22;50346;51.268;15.942;2022-07-21T05:07:41;20.90;17.30
6958;DHT22;50346;51.268;15.942;2022-07-21T05:10:08;21.00;16.40
6958;DHT22;50346;51.268;15.942;2022-07-21T05:12:35;21.10;14.30
6958;DHT22;50346;51.268;15.942;2022-07-21T05:15:01;21.20;10.70
6958;DHT22;50346;51.268;15.942;2022-07-21T05:17:27;21.30;8.90
6958;DHT22;50346;51.268;15.942;2022-07-21T05:19:52;21.40;5.50
6958;DHT22;50346;51.268;15.942;2022-07-21T05:24:44;21.50;1.00
6958;DHT22;50346;51.268;15.942;2022-07-21T05:27:10;21.70;1.80
6958;DHT22;50346;51.268;15.942;2022-07-21T05:32:02;21.90;1.00
6958;DHT22;50346;51.268;15.942;2022-07-21T05:36:54;22.10;1.00
6958;DHT22;50346;51.268;15.942;2022-07-21T05:39:20;22.20;1.00
6958;DHT22;50346;51.268;15.942;2022-07-21T05:41:46;22.30;1.00
6958;DHT22;50346;51.268;15.942;2022-07-21T05:44:12;22.70;94.10
6958;DHT22;50346;51.268;15.942;2022-07-21T05:46:37;22.50;99.90
6958;DHT22;50346;51.268;15.942;2022-07-21T05:49:03;22.60;99.90
6958;DHT22;50346;51.268;15.942;2022-07-21T05:51:29;22.70;99.90
6958;DHT22;50346;51.268;15.942;2022-07-21T05:53:55;22.80;1.00
6958;DHT22;50346;51.268;15.942;2022-07-21T05:56:20;22.90;1.00
6958;DHT22;50346;51.268;15.942;2022-07-21T06:01:12;23.00;1.00
6958;DHT22;50346;51.268;15.942;2022-07-21T06:03:49;23.10;1.00
6958;DHT22;50346;51.268;15.942;2022-07-21T06:06:16;23.20;1.00
6958;DHT22;50346;51.268;15.942;2022-07-21T06:08:44;23.20;1.00
6958;DHT22;50346;51.268;15.942;2022-07-21T06:11:14;23.30;1.00
6958;DHT22;50346;51.268;15.942;2022-07-21T06:13:40;23.40;99.90
6958;DHT22;50346;51.268;15.942;2022-07-21T06:18:32;23.40;1.00
6958;DHT22;50346;51.268;15.942;2022-07-21T06:30:43;23.70;1.00
6958;DHT22;50346;51.268;15.942;2022-07-21T06:33:09;23.80;99.90
6958;DHT22;50346;51.268;15.942;2022-07-21T06:35:35;23.80;1.00
6958;DHT22;50346;51.268;15.942;2022-07-21T06:38:00;23.80;1.00
6958;DHT22;50346;51.268;15.942;2022-07-21T06:40:26;23.80;28.00
6958;DHT22;50346;51.268;15.942;2022-07-21T06:42:52;23.90;99.90
6958;DHT22;50346;51.268;15.942;2022-07-21T06:45:18;23.90;98.80
6958;DHT22;50346;51.268;15.942;2022-07-21T06:47:43;24.00;99.90
6958;DHT22;50346;51.268;15.942;2022-07-21T06:50:09;24.00;99.90
6958;DHT22;50346;51.268;15.942;2022-07-21T06:52:36;24.10;13.90
6958;DHT22;50346;51.268;15.942;2022-07-21T06:55:04;24.10;1.00
6958;DHT22;50346;51.268;15.942;2022-07-21T06:59:57;24.20;1.00
6958;DHT22;50346;51.268;15.942;2022-07-21T07:02:23;24.30;1.00
6958;DHT22;50346;51.268;15.942;2022-07-21T07:04:49;24.40;1.00
6958;DHT22;50346;51.268;15.942;2022-07-21T07:07:14;24.50;1.00
6958;DHT22;50346;51.268;15.942;2022-07-21T07:09:40;24.60;1.00
6958;DHT22;50346;51.268;15.942;2022-07-21T07:12:07;24.80;1.00
6958;DHT22;50346;51.268;15.942;2022-07-21T07:14:35;24.90;1.00
6958;DHT22;50346;51.268;15.942;2022-07-21T07:17:03;25.00;1.00
6958;DHT22;50346;51.268;15.942;2022-07-21T07:19:29;25.10;1.00
6958;DHT22;50346;51.268;15.942;2022-07-21T07:21:55;25.20;1.00
6958;DHT22;50346;51.268;15.942;2022-07-21T07:24:21;25.30;1.00
6958;DHT22;50346;51.268;15.942;2022-07-21T07:29:13;25.50;1.00
6958;DHT22;50346;51.268;15.942;2022-07-21T07:36:31;25.80;1.00
6958;DHT22;50346;51.268;15.942;2022-07-21T07:53:36;26.70;99.90
6958;DHT22;50346;51.268;15.942;2022-07-21T07:58:29;26.90;99.90
6958;DHT22;50346;51.268;15.942;2022-07-21T08:15:36;28.00;37.40
6958;DHT22;50346;51.268;15.942;2022-07-21T08:20:28;28.10;1.00
6958;DHT22;50346;51.268;15.942;2022-07-21T08:22:54;28.30;1.00
6958;DHT22;50346;51.268;15.942;2022-07-21T08:42:26;28.90;99.90
6958;DHT22;50346;51.268;15.942;2022-07-21T08:44:52;29.00;99.90
6958;DHT22;50346;51.268;15.942;2022-07-21T08:47:17;29.00;99.90
6958;DHT22;50346;51.268;15.942;2022-07-21T08:49:45;29.00;99.90
6958;DHT22;50346;51.268;15.942;2022-07-21T08:52:11;29.00;99.90
6958;DHT22;50346;51.268;15.942;2022-07-21T08:54:37;29.10;99.90
6958;DHT22;50346;51.268;15.942;2022-07-21T08:57:03;29.20;99.90
6958;DHT22;50346;51.268;15.942;2022-07-21T08:59:29;29.20;94.60
6958;DHT22;50346;51.268;15.942;2022-07-21T09:01:54;29.30;1.00
6958;DHT22;50346;51.268;15.942;2022-07-21T09:04:28;29.40;1.00
6958;DHT22;50346;51.268;15.942;2022-07-21T09:09:24;29.60;25.20
6958;DHT22;50346;51.268;15.942;2022-07-21T09:11:51;29.70;1.00
6958;DHT22;50346;51.268;15.942;2022-07-21T09:14:20;29.80;1.00
6958;DHT22;50346;51.268;15.942;2022-07-21T09:17:07;29.90;1.00
6958;DHT22;50346;51.268;15.942;2022-07-21T09:22:06;30.10;1.00
6958;DHT22;50346;51.268;15.942;2022-07-21T09:49:39;30.80;34.00
6958;DHT22;50346;51.268;15.942;2022-07-21T09:52:22;31.00;1.00
6958;DHT22;50346;51.268;15.942;2022-07-21T09:59:46;31.70;1.00
6958;DHT22;50346;51.268;15.942;2022-07-21T10:02:16;31.40;1.00
6958;DHT22;50346;51.268;15.942;2022-07-21T10:04:45;31.40;99.90
6958;DHT22;50346;51.268;15.942;2022-07-21T10:14:29;31.70;1.00
6958;DHT22;50346;51.268;15.942;2022-07-21T10:16:55;31.80;99.90
6958;DHT22;50346;51.268;15.942;2022-07-21T10:19:29;31.80;99.90
6958;DHT22;50346;51.268;15.942;2022-07-21T10:25:00;32.00;99.90
6958;DHT22;50346;51.268;15.942;2022-07-21T10:27:26;32.00;99.90
6958;DHT22;50346;51.268;15.942;2022-07-21T10:29:56;32.10;99.90
6958;DHT22;50346;51.268;15.942;2022-07-21T10:32:26;32.10;99.90
6958;DHT22;50346;51.268;15.942;2022-07-21T10:34:53;32.20;99.90
6958;DHT22;50346;51.268;15.942;2022-07-21T10:42:30;32.40;1.00
6958;DHT22;50346;51.268;15.942;2022-07-21T10:44:56;32.50;1.00
6958;DHT22;50346;51.268;15.942;2022-07-21T10:47:22;32.60;99.90
6958;DHT22;50346;51.268;15.942;2022-07-21T10:50:01;32.70;99.90
6958;DHT22;50346;51.268;15.942;2022-07-21T10:57:39;33.10;86.60
6958;DHT22;50346;51.268;15.942;2022-07-21T11:13:02;33.70;99.90
6958;DHT22;50346;51.268;15.942;2022-07-21T11:15:48;33.80;99.90
6958;DHT22;50346;51.268;15.942;2022-07-21T11:18:23;33.80;99.90
6958;DHT22;50346;51.268;15.942;2022-07-21T11:21:02;33.80;99.90
6958;DHT22;50346;51.268;15.942;2022-07-21T11:31:26;34.20;1.00
6958;DHT22;50346;51.268;15.942;2022-07-21T11:33:51;34.30;1.00
6958;DHT22;50346;51.268;15.942;2022-07-21T11:44:02;34.90;99.90
6958;DHT22;50346;51.268;15.942;2022-07-21T11:46:27;34.90;99.90
6958;DHT22;50346;51.268;15.942;2022-07-21T11:49:01;34.90;99.90
6958;DHT22;50346;51.268;15.942;2022-07-21T11:51:27;35.00;99.90
6958;DHT22;50346;51.268;15.942;2022-07-21T11:53:52;35.00;1.00
6958;DHT22;50346;51.268;15.942;2022-07-21T11:56:18;35.10;66.40
6958;DHT22;50346;51.268;15.942;2022-07-21T11:58:44;35.30;99.90
6958;DHT22;50346;51.268;15.942;2022-07-21T12:01:10;35.40;28.90
6958;DHT22;50346;51.268;15.942;2022-07-21T12:03:47;35.50;99.90
6958;DHT22;50346;51.268;15.942;2022-07-21T12:08:42;35.60;59.70
6958;DHT22;50346;51.268;15.942;2022-07-21T12:11:09;35.70;1.00
6958;DHT22;50346;51.268;15.942;2022-07-21T12:13:57;35.80;1.00
6958;DHT22;50346;51.268;15.942;2022-07-21T12:16:24;36.00;1.00
6958;DHT22;50346;51.268;15.942;2022-07-21T12:19:09;36.20;1.00
6958;DHT22;50346;51.268;15.942;2022-07-21T12:21:45;36.40;1.00
6958;DHT22;50346;51.268;15.942;2022-07-21T12:24:11;36.60;1.00
6958;DHT22;50346;51.268;15.942;2022-07-21T12:26:37;36.70;1.00
6958;DHT22;50346;51.268;15.942;2022-07-21T12:29:03;36.70;1.00
6958;DHT22;50346;51.268;15.942;2022-07-21T12:31:33;36.70;1.00
6958;DHT22;50346;51.268;15.942;2022-07-21T13:53:17;40.00;99.90
6958;DHT22;50346;51.268;15.942;2022-07-21T13:58:09;39.60;1.00
6958;DHT22;50346;51.268;15.942;2022-07-21T14:00:35;39.60;1.00
6958;DHT22;50346;51.268;15.942;2022-07-21T14:03:01;39.90;99.90
6958;DHT22;50346;51.268;15.942;2022-07-21T14:07:53;40.20;6.40
6958;DHT22;50346;51.268;15.942;2022-07-21T14:10:18;40.80;1.00
6958;DHT22;50346;51.268;15.942;2022-07-21T14:12:44;40.80;1.00
6958;DHT22;50346;51.268;15.942;2022-07-21T14:15:10;40.60;1.00
6958;DHT22;50346;51.268;15.942;2022-07-21T14:17:36;40.20;1.00
6958;DHT22;50346;51.268;15.942;2022-07-21T14:20:02;39.60;1.00
6958;DHT22;50346;51.268;15.942;2022-07-21T14:22:27;38.90;1.00
6958;DHT22;50346;51.268;15.942;2022-07-21T14:24:53;38.60;99.90
6958;DHT22;50346;51.268;15.942;2022-07-21T14:27:37;38.20;19.50
6958;DHT22;50346;51.268;15.942;2022-07-21T14:30:04;38.00;1.00
6958;DHT22;50346;51.268;15.942;2022-07-21T14:32:30;37.90;1.00
6958;DHT22;50346;51.268;15.942;2022-07-21T14:34:57;37.90;1.00
6958;DHT22;50346;51.268;15.942;2022-07-21T14:37:24;37.90;1.00
6958;DHT22;50346;51.268;15.942;2022-07-21T14:39:50;37.80;1.00
6958;DHT22;50346;51.268;15.942;2022-07-21T14:42:16;37.60;1.00
6958;DHT22;50346;51.268;15.942;2022-07-21T14:44:42;37.50;55.90
6958;DHT22;50346;51.268;15.942;2022-07-21T14:47:09;37.50;99.90
6958;DHT22;50346;51.268;15.942;2022-07-21T14:49:35;37.50;99.90
6958;DHT22;50346;51.268;15.942;2022-07-21T14:52:01;37.60;99.90
6958;DHT22;50346;51.268;15.942;2022-07-21T14:54:27;38.10;99.90
6958;DHT22;50346;51.268;15.942;2022-07-21T14:56:52;38.70;1.00
6958;DHT22;50346;51.268;15.942;2022-07-21T14:59:18;39.20;1.00
6958;DHT22;50346;51.268;15.942;2022-07-21T15:01:44;39.60;1.00
6958;DHT22;50346;51.268;15.942;2022-07-21T15:04:12;41.30;99.90
6958;DHT22;50346;51.268;15.942;2022-07-21T15:35:51;46.10;1.00
6958;DHT22;50346;51.268;15.942;2022-07-21T15:52:56;40.10;99.90
6958;DHT22;50346;51.268;15.942;2022-07-21T15:55:22;39.10;87.30
6958;DHT22;50346;51.268;15.942;2022-07-21T16:00:14;37.50;1.00
6958;DHT22;50346;51.268;15.942;2022-07-21T16:02:41;36.60;1.00
6958;DHT22;50346;51.268;15.942;2022-07-21T16:05:09;35.90;1.00
6958;DHT22;50346;51.268;15.942;2022-07-21T16:07:35;35.40;99.90
6958;DHT22;50346;51.268;15.942;2022-07-21T16:10:02;35.10;1.00
6958;DHT22;50346;51.268;15.942;2022-07-21T16:12:27;35.10;1.00
6958;DHT22;50346;51.268;15.942;2022-07-21T16:14:53;35.30;1.00
6958;DHT22;50346;51.268;15.942;2022-07-21T16:17:19;36.00;1.00
6958;DHT22;50346;51.268;15.942;2022-07-21T16:19:45;37.30;1.00
6958;DHT22;50346;51.268;15.942;2022-07-21T16:22:10;38.80;1.00
6958;DHT22;50346;51.268;15.942;2022-07-21T16:24:36;40.30;1.00
6958;DHT22;50346;51.268;15.942;2022-07-21T16:27:03;41.00;1.00
6958;DHT22;50346;51.268;15.942;2022-07-21T16:29:29;40.30;1.00
6958;DHT22;50346;51.268;15.942;2022-07-21T16:31:54;39.00;1.00
6958;DHT22;50346;51.268;15.942;2022-07-21T16:34:24;38.10;1.00
6958;DHT22;50346;51.268;15.942;2022-07-21T16:36:51;37.90;1.00
6958;DHT22;50346;51.268;15.942;2022-07-21T16:39:16;38.70;1.00
6958;DHT22;50346;51.268;15.942;2022-07-21T16:41:42;39.60;1.00
6958;DHT22;50346;51.268;15.942;2022-07-21T16:44:08;40.30;1.00
6958;DHT22;50346;51.268;15.942;2022-07-21T16:46:36;40.70;1.00
6958;DHT22;50346;51.268;15.942;2022-07-21T16:49:02;40.80;1.00
6958;DHT22;50346;51.268;15.942;2022-07-21T16:51:28;41.00;1.00
6958;DHT22;50346;51.268;15.942;2022-07-21T16:53:55;40.80;1.00
6958;DHT22;50346;51.268;15.942;2022-07-21T16:56:20;39.30;1.00
6958;DHT22;50346;51.268;15.942;2022-07-21T16:58:46;38.00;1.00
6958;DHT22;50346;51.268;15.942;2022-07-21T17:01:12;37.00;1.00
6958;DHT22;50346;51.268;15.942;2022-07-21T17:03:37;36.80;1.00
6958;DHT22;50346;51.268;15.942;2022-07-21T17:06:03;36.70;99.90
6958;DHT22;50346;51.268;15.942;2022-07-21T17:08:29;36.80;99.90
6958;DHT22;50346;51.268;15.942;2022-07-21T17:10:54;36.60;99.90
6958;DHT22;50346;51.268;15.942;2022-07-21T17:18:12;34.70;1.00
6958;DHT22;50346;51.268;15.942;2022-07-21T17:32:52;31.20;1.00
6958;DHT22;50346;51.268;15.942;2022-07-21T17:35:20;30.90;1.00
6958;DHT22;50346;51.268;15.942;2022-07-21T17:47:32;29.60;99.90
6958;DHT22;50346;51.268;15.942;2022-07-21T18:02:26;28.60;1.00
6958;DHT22;50346;51.268;15.942;2022-07-21T18:07:18;28.30;1.00
6958;DHT22;50346;51.268;15.942;2022-07-21T18:09:43;28.20;1.00
6958;DHT22;50346;51.268;15.942;2022-07-21T18:12:09;28.10;1.00
6958;DHT22;50346;51.268;15.942;2022-07-21T18:14:35;28.00;1.00
6958;DHT22;50346;51.268;15.942;2022-07-21T18:19:26;27.70;1.00
6958;DHT22;50346;51.268;15.942;2022-07-21T18:21:52;27.60;1.00
6958;DHT22;50346;51.268;15.942;2022-07-21T18:24:17;27.40;1.00
6958;DHT22;50346;51.268;15.942;2022-07-21T18:26:43;27.20;1.00
6958;DHT22;50346;51.268;15.942;2022-07-21T18:29:09;27.10;1.00
6958;DHT22;50346;51.268;15.942;2022-07-21T18:31:34;26.90;99.90
6958;DHT22;50346;51.268;15.942;2022-07-21T18:34:00;26.70;1.00
6958;DHT22;50346;51.268;15.942;2022-07-21T18:36:26;26.60;1.00
6958;DHT22;50346;51.268;15.942;2022-07-21T18:38:51;26.50;1.00
6958;DHT22;50346;51.268;15.942;2022-07-21T18:41:17;26.40;1.00
6958;DHT22;50346;51.268;15.942;2022-07-21T18:43:47;26.30;1.00
6958;DHT22;50346;51.268;15.942;2022-07-21T18:48:39;26.20;1.00
6958;DHT22;50346;51.268;15.942;2022-07-21T18:51:07;26.10;1.00
6958;DHT22;50346;51.268;15.942;2022-07-21T18:53:33;26.10;1.00
6958;DHT22;50346;51.268;15.942;2022-07-21T18:55:59;26.00;1.00
6958;DHT22;50346;51.268;15.942;2022-07-21T18:58:25;26.00;1.00
6958;DHT22;50346;51.268;15.942;2022-07-21T19:00:50;25.90;1.00
6958;DHT22;50346;51.268;15.942;2022-07-21T19:03:16;25.90;1.00
6958;DHT22;50346;51.268;15.942;2022-07-21T19:05:43;25.80;1.00
6958;DHT22;50346;51.268;15.942;2022-07-21T19:08:09;25.80;1.00
6958;DHT22;50346;51.268;15.942;2022-07-21T19:10:34;25.70;1.00
6958;DHT22;50346;51.268;15.942;2022-07-21T19:13:00;25.70;99.90
6958;DHT22;50346;51.268;15.942;2022-07-21T19:15:26;25.60;99.90
6958;DHT22;50346;51.268;15.942;2022-07-21T19:17:52;25.60;99.90
6958;DHT22;50346;51.268;15.942;2022-07-21T19:20:18;25.60;1.00
6958;DHT22;50346;51.268;15.942;2022-07-21T19:22:45;25.50;1.00
6958;DHT22;50346;51.268;15.942;2022-07-21T19:25:12;25.50;1.00
6958;DHT22;50346;51.268;15.942;2022-07-21T19:27:39;25.40;1.00
6958;DHT22;50346;51.268;15.942;2022-07-21T19:30:05;25.40;1.00
6958;DHT22;50346;51.268;15.942;2022-07-21T19:32:31;25.30;99.90
6958;DHT22;50346;51.268;15.942;2022-07-21T19:34:57;25.40;1.00
6958;DHT22;50346;51.268;15.942;2022-07-21T19:37:23;25.30;99.90
6958;DHT22;50346;51.268;15.942;2022-07-21T19:39:49;25.30;20.90
6958;DHT22;50346;51.268;15.942;2022-07-21T19:42:15;25.30;1.00
6958;DHT22;50346;51.268;15.942;2022-07-21T19:44:40;25.20;1.00
6958;DHT22;50346;51.268;15.942;2022-07-21T19:47:06;25.20;1.00
6958;DHT22;50346;51.268;15.942;2022-07-21T19:49:33;25.20;1.00
6958;DHT22;50346;51.268;15.942;2022-07-21T19:51:59;25.20;99.90
6958;DHT22;50346;51.268;15.942;2022-07-21T19:54:25;25.20;78.50
6958;DHT22;50346;51.268;15.942;2022-07-21T19:56:50;25.10;99.90
6958;DHT22;50346;51.268;15.942;2022-07-21T19:59:16;25.10;1.00
6958;DHT22;50346;51.268;15.942;2022-07-21T20:04:10;25.00;1.00
6958;DHT22;50346;51.268;15.942;2022-07-21T20:06:36;25.00;1.00
6958;DHT22;50346;51.268;15.942;2022-07-21T20:09:02;24.90;1.00
6958;DHT22;50346;51.268;15.942;2022-07-21T20:13:54;24.90;1.00
6958;DHT22;50346;51.268;15.942;2022-07-21T20:16:21;24.90;1.00
6958;DHT22;50346;51.268;15.942;2022-07-21T20:18:47;24.80;1.00
6958;DHT22;50346;51.268;15.942;2022-07-21T20:21:12;24.80;1.00
6958;DHT22;50346;51.268;15.942;2022-07-21T20:23:38;24.80;1.00
6958;DHT22;50346;51.268;15.942;2022-07-21T20:26:03;24.70;1.00
6958;DHT22;50346;51.268;15.942;2022-07-21T20:28:29;24.70;1.00
6958;DHT22;50346;51.268;15.942;2022-07-21T20:30:55;24.70;1.00
6958;DHT22;50346;51.268;15.942;2022-07-21T20:33:20;24.70;1.00
6958;DHT22;50346;51.268;15.942;2022-07-21T20:35:46;24.70;1.00
6958;DHT22;50346;51.268;15.942;2022-07-21T20:38:12;24.70;1.00
6958;DHT22;50346;51.268;15.942;2022-07-21T20:40:37;24.60;1.00
6958;DHT22;50346;51.268;15.942;2022-07-21T20:43:09;24.60;1.00
6958;DHT22;50346;51.268;15.942;2022-07-21T20:45:36;24.60;1.00
6958;DHT22;50346;51.268;15.942;2022-07-21T20:48:02;24.70;1.00
6958;DHT22;50346;51.268;15.942;2022-07-21T20:50:27;24.60;1.00
6958;DHT22;50346;51.268;15.942;2022-07-21T20:52:53;24.60;1.00
6958;DHT22;50346;51.268;15.942;2022-07-21T20:57:45;24.60;99.90
6958;DHT22;50346;51.268;15.942;2022-07-21T21:00:10;24.60;99.90
6958;DHT22;50346;51.268;15.942;2022-07-21T21:02:37;24.50;99.90
6958;DHT22;50346;51.268;15.942;2022-07-21T21:05:03;24.50;99.90
6958;DHT22;50346;51.268;15.942;2022-07-21T21:07:29;24.50;99.90
6958;DHT22;50346;51.268;15.942;2022-07-21T21:09:54;24.40;99.90
6958;DHT22;50346;51.268;15.942;2022-07-21T21:12:20;24.40;99.90
6958;DHT22;50346;51.268;15.942;2022-07-21T21:14:46;24.40;1.00
6958;DHT22;50346;51.268;15.942;2022-07-21T21:19:39;24.30;1.00
6958;DHT22;50346;51.268;15.942;2022-07-21T21:22:05;24.30;1.00
6958;DHT22;50346;51.268;15.942;2022-07-21T21:24:30;24.20;1.00
6958;DHT22;50346;51.268;15.942;2022-07-21T21:29:22;24.20;1.00
6958;DHT22;50346;51.268;15.942;2022-07-21T21:31:51;24.20;1.00
6958;DHT22;50346;51.268;15.942;2022-07-21T21:34:16;24.10;1.00
6958;DHT22;50346;51.268;15.942;2022-07-21T21:36:42;24.10;1.00
6958;DHT22;50346;51.268;15.942;2022-07-21T21:39:08;24.10;1.00
6958;DHT22;50346;51.268;15.942;2022-07-21T21:41:35;24.10;1.00
6958;DHT22;50346;51.268;15.942;2022-07-21T21:44:00;24.10;1.00
6958;DHT22;50346;51.268;15.942;2022-07-21T21:46:27;24.10;1.00
6958;DHT22;50346;51.268;15.942;2022-07-21T21:48:52;24.00;1.00
6958;DHT22;50346;51.268;15.942;2022-07-21T21:51:18;24.00;1.00
6958;DHT22;50346;51.268;15.942;2022-07-21T21:53:44;23.90;1.00
6958;DHT22;50346;51.268;15.942;2022-07-21T21:56:10;23.90;1.00
6958;DHT22;50346;51.268;15.942;2022-07-21T21:58:35;23.90;1.00
6958;DHT22;50346;51.268;15.942;2022-07-21T22:01:01;23.80;1.00
6958;DHT22;50346;51.268;15.942;2022-07-21T22:03:26;23.80;1.00
6958;DHT22;50346;51.268;15.942;2022-07-21T22:05:52;23.80;1.00
6958;DHT22;50346;51.268;15.942;2022-07-21T22:08:18;23.80;1.00
6958;DHT22;50346;51.268;15.942;2022-07-21T22:10:43;23.80;1.00
6958;DHT22;50346;51.268;15.942;2022-07-21T22:13:09;23.60;99.90
6958;DHT22;50346;51.268;15.942;2022-07-21T22:15:35;23.80;1.00
6958;DHT22;50346;51.268;15.942;2022-07-21T22:18:01;23.70;1.00
6958;DHT22;50346;51.268;15.942;2022-07-21T22:20:26;23.70;1.00
6958;DHT22;50346;51.268;15.942;2022-07-21T22:22:52;23.70;1.00
6958;DHT22;50346;51.268;15.942;2022-07-21T22:25:18;23.70;1.00
6958;DHT22;50346;51.268;15.942;2022-07-21T22:27:44;23.60;1.00
6958;DHT22;50346;51.268;15.942;2022-07-21T22:30:10;23.60;1.00
6958;DHT22;50346;51.268;15.942;2022-07-21T22:32:36;23.60;6.90
6958;DHT22;50346;51.268;15.942;2022-07-21T22:35:03;23.50;99.90
6958;DHT22;50346;51.268;15.942;2022-07-21T22:37:28;23.90;99.90
6958;DHT22;50346;51.268;15.942;2022-07-21T22:39:54;23.50;99.90
6958;DHT22;50346;51.268;15.942;2022-07-21T22:42:20;23.50;99.90
6958;DHT22;50346;51.268;15.942;2022-07-21T22:44:45;23.50;99.90
6958;DHT22;50346;51.268;15.942;2022-07-21T22:47:11;23.50;52.20
6958;DHT22;50346;51.268;15.942;2022-07-21T22:49:36;23.40;1.00
6958;DHT22;50346;51.268;15.942;2022-07-21T22:52:02;23.40;1.00
6958;DHT22;50346;51.268;15.942;2022-07-21T22:54:28;23.40;1.00
6958;DHT22;50346;51.268;15.942;2022-07-21T22:56:54;23.40;1.00
6958;DHT22;50346;51.268;15.942;2022-07-21T22:59:19;23.40;1.00
6958;DHT22;50346;51.268;15.942;2022-07-21T23:01:45;23.30;1.00